Edison, New Jersey
Current Conditions -  °F | °C
As of 11:15 PM on Sunday 23 Nov 2014 (Local Time) from KLDJ Reporting Station
Overcast Overcast  
Wind Chill: 53°   Ceiling: 4100
Heat Index: 53°   Visibility: 10mi
Dew Point: 47°   Wind: 0mph
Humidity: 80%   Direction: NA
Pressure: 30.03"   Gusts: NA
Location:  40.53°N, 74.39°W
Report Text: KLDJ 240415Z AUTO 00000KT 10SM BKN041 OVC048 12/09 A3003 RMK AO2 T01190085
Loading
Personal Weather Stations






























Interactive Weather Map New forecast layout! Learn more

10-Day Weather Forecast

Advertisements
Track Severe Weather on mobile